Time;durP1;ratioP1;P1;durP2;ratioP2;P2;SDS_P1;SDS_P2;PMS_P1;PMS_P2;Temp;Humidity;BMP_temperature;BMP_pressure;BME280_temperature;BME280_humidity;BME280_pressure;Samples;Min_cycle;Max_cycle;Signal;HPM_P1;HPM_P2
2023/12/02 00:02:14;;;;;;;18.70;7.30;;;-3.20;99.90;;;;;;6179026;23;20430;-59
2023/12/02 00:04:41;;;;;;;18.80;8.80;;;-3.20;99.90;;;;;;6168490;23;20402;-62
2023/12/02 00:07:07;;;;;;;14.40;8.07;;;-3.20;99.90;;;;;;6180184;23;20433;-57
2023/12/02 00:09:37;;;;;;;21.93;8.03;;;-3.10;99.90;;;;;;6175680;23;20434;-61
2023/12/02 00:12:05;;;;;;;21.43;8.80;;;-3.20;99.90;;;;;;6157922;23;20430;-60
2023/12/02 00:14:32;;;;;;;16.83;7.50;;;-3.20;99.90;;;;;;6162963;23;20416;-54
2023/12/02 00:16:58;;;;;;;16.23;7.27;;;-3.20;99.90;;;;;;6167319;23;20464;-62
2023/12/02 00:19:25;;;;;;;10.60;5.00;;;-3.30;99.90;;;;;;6180512;23;20414;-60
2023/12/02 00:21:52;;;;;;;15.17;7.23;;;-3.30;99.90;;;;;;6174630;23;20434;-62
2023/12/02 00:24:19;;;;;;;25.20;8.73;;;-3.30;99.90;;;;;;6176869;23;20845;-60
2023/12/02 00:26:47;;;;;;;20.67;9.53;;;-3.40;99.90;;;;;;6174210;23;20470;-60
2023/12/02 00:29:16;;;;;;;18.03;8.43;;;-3.40;99.90;;;;;;6179678;23;20465;-56
2023/12/02 00:31:43;;;;;;;15.53;9.23;;;-3.40;99.90;;;;;;6180378;23;20386;-54
2023/12/02 00:34:10;;;;;;;10.97;6.50;;;-3.40;99.90;;;;;;6167509;23;20409;-58
2023/12/02 00:36:37;;;;;;;15.90;7.23;;;-3.50;99.90;;;;;;6167129;23;20417;-58
2023/12/02 00:39:07;;;;;;;11.03;6.27;;;-3.50;99.90;;;;;;6180659;23;20397;-55
2023/12/02 00:41:34;;;;;;;17.70;7.93;;;-3.60;99.90;;;;;;6164433;23;20441;-60
2023/12/02 00:44:02;;;;;;;17.13;7.70;;;-3.60;99.90;;;;;;6166780;23;20350;-57
2023/12/02 00:46:29;;;;;;;12.27;8.63;;;-3.50;99.90;;;;;;6166556;23;20401;-57
2023/12/02 00:49:04;;;;;;;16.60;8.20;;;-3.50;99.90;;;;;;6170521;23;20434;-54
2023/12/02 00:51:33;;;;;;;19.00;8.30;;;-3.50;99.90;;;;;;6170571;23;20397;-53
2023/12/02 00:54:00;;;;;;;14.73;8.50;;;-3.50;99.90;;;;;;6175596;23;20670;-57
2023/12/02 00:56:27;;;;;;;22.60;8.83;;;-3.60;99.90;;;;;;6180015;23;20417;-57
2023/12/02 00:58:54;;;;;;;20.67;11.47;;;-3.50;99.90;;;;;;6181505;23;20453;-60
2023/12/02 01:01:22;;;;;;;14.57;7.40;;;-3.50;99.90;;;;;;6181087;23;20442;-55
2023/12/02 01:03:49;;;;;;;15.13;6.70;;;-3.50;99.90;;;;;;6164751;23;20822;-64
2023/12/02 01:06:16;;;;;;;19.00;8.60;;;-2.20;99.90;;;;;;6174516;23;20424;-57
2023/12/02 01:08:42;;;;;;;10.27;6.80;;;-3.50;99.90;;;;;;6174738;23;20418;-56
2023/12/02 01:11:09;;;;;;;12.33;7.10;;;-3.60;99.90;;;;;;6183530;23;20385;-56
2023/12/02 01:13:39;;;;;;;21.00;9.70;;;-3.60;99.90;;;;;;6177753;23;20477;-57
2023/12/02 01:16:06;;;;;;;17.67;10.23;;;-3.60;99.90;;;;;;6183420;23;20485;-56
2023/12/02 01:18:35;;;;;;;19.73;8.43;;;-3.50;99.90;;;;;;6173964;23;20432;-60
2023/12/02 01:21:03;;;;;;;15.10;5.87;;;-3.50;99.90;;;;;;6178109;23;20426;-58
2023/12/02 01:23:30;;;;;;;19.33;9.43;;;-3.50;99.90;;;;;;6161550;23;20385;-57
2023/12/02 01:25:57;;;;;;;12.93;7.00;;;-3.50;99.90;;;;;;6163842;23;20837;-60
2023/12/02 01:28:24;;;;;;;18.87;9.83;;;-3.50;99.90;;;;;;6174070;23;20394;-58
2023/12/02 01:30:51;;;;;;;18.40;8.03;;;-3.50;99.90;;;;;;6177192;23;20405;-61
2023/12/02 01:33:18;;;;;;;30.17;11.93;;;-3.50;99.90;;;;;;6185287;23;20417;-57
2023/12/02 01:35:46;;;;;;;26.10;7.83;;;-3.50;99.90;;;;;;6184673;23;20378;-56
2023/12/02 01:38:13;;;;;;;18.20;8.90;;;-3.50;99.90;;;;;;6163660;23;20426;-50
2023/12/02 01:40:44;;;;;;;30.13;9.10;;;-3.50;99.90;;;;;;6174144;23;20391;-61
2023/12/02 01:43:21;;;;;;;16.47;8.80;;;-3.50;99.90;;;;;;6179363;23;20386;-60
2023/12/02 01:45:48;;;;;;;17.23;8.90;;;-3.50;99.90;;;;;;6161834;23;20457;-60
2023/12/02 01:48:16;;;;;;;19.80;6.93;;;-3.50;99.90;;;;;;6158405;23;20444;-59
2023/12/02 01:50:42;;;;;;;20.80;7.73;;;-3.50;99.90;;;;;;6178977;23;20406;-60
2023/12/02 01:53:11;;;;;;;24.57;8.33;;;-3.50;99.90;;;;;;6171486;23;20390;-59
2023/12/02 01:55:38;;;;;;;30.00;10.90;;;-3.50;99.90;;;;;;6178780;23;20404;-59
2023/12/02 01:58:04;;;;;;;20.23;7.70;;;-3.50;99.90;;;;;;6166813;23;20464;-59
2023/12/02 02:00:31;;;;;;;21.07;9.90;;;-3.60;99.90;;;;;;6184458;23;20398;-59
2023/12/02 02:02:58;;;;;;;21.63;10.43;;;-3.60;99.90;;;;;;6174354;23;20394;-57
2023/12/02 02:05:25;;;;;;;21.93;9.90;;;-3.60;99.90;;;;;;6171719;23;20825;-58
2023/12/02 02:07:52;;;;;;;11.27;7.87;;;-3.50;99.90;;;;;;6158098;23;20481;-63
2023/12/02 02:10:22;;;;;;;11.40;5.50;;;-3.50;99.90;;;;;;6172742;23;20436;-62
2023/12/02 02:12:49;;;;;;;14.60;8.10;;;-3.50;99.90;;;;;;6158028;23;20418;-59
2023/12/02 02:15:19;;;;;;;18.73;9.17;;;-3.60;99.90;;;;;;6182255;23;20548;-57
2023/12/02 02:17:46;;;;;;;14.20;6.93;;;-3.60;99.90;;;;;;6182270;23;20417;-60
2023/12/02 02:20:13;;;;;;;21.90;10.97;;;-3.50;99.90;;;;;;6181746;23;20409;-59
2023/12/02 02:22:41;;;;;;;20.80;8.80;;;-3.50;99.90;;;;;;6164124;23;20520;-60
2023/12/02 02:25:08;;;;;;;20.03;7.70;;;-3.50;99.90;;;;;;6176914;23;20409;-59
2023/12/02 02:27:35;;;;;;;26.70;11.30;;;-3.50;99.90;;;;;;6158802;23;20927;-58
2023/12/02 02:30:02;;;;;;;22.93;9.37;;;-3.60;99.90;;;;;;6167369;23;20374;-54
2023/12/02 02:32:29;;;;;;;18.77;8.47;;;-3.60;99.90;;;;;;6178454;23;20406;-57
2023/12/02 02:34:56;;;;;;;14.90;8.10;;;-3.60;99.90;;;;;;6160366;23;20402;-59
2023/12/02 02:37:23;;;;;;;12.50;5.70;;;-3.60;99.90;;;;;;6180797;23;20386;-52
2023/12/02 02:39:51;;;;;;;14.80;5.77;;;-3.60;99.90;;;;;;6184494;23;20494;-53
2023/12/02 02:42:18;;;;;;;22.40;9.00;;;-3.60;99.90;;;;;;6184614;23;20393;-55
2023/12/02 02:44:45;;;;;;;12.67;8.00;;;-3.70;99.90;;;;;;6184894;23;20462;-51
2023/12/02 02:47:14;;;;;;;16.07;8.77;;;-3.70;99.90;;;;;;6184585;23;20409;-53
2023/12/02 02:49:41;;;;;;;17.77;8.90;;;-3.70;99.90;;;;;;6184599;23;20421;-54
2023/12/02 02:52:08;;;;;;;16.70;8.27;;;-3.70;99.90;;;;;;6184467;23;20401;-52
2023/12/02 02:54:35;;;;;;;13.30;8.30;;;-3.70;99.90;;;;;;6184612;23;20370;-55
2023/12/02 02:57:03;;;;;;;18.20;8.27;;;-3.70;99.90;;;;;;6184688;23;20409;-54
2023/12/02 02:59:35;;;;;;;16.37;9.20;;;-3.80;99.90;;;;;;6184544;23;20433;-56
2023/12/02 03:02:03;;;;;;;14.57;7.40;;;-3.70;99.90;;;;;;6184434;23;20393;-56
2023/12/02 03:22:42;;;;;;;10.33;6.80;;;-3.90;99.90;;;;;;6139590;23;20829;-70
2023/12/02 03:25:09;;;;;;;15.93;5.67;;;-4.00;99.90;;;;;;6164974;23;20898;-71
2023/12/02 03:27:37;;;;;;;9.20;6.83;;;-4.10;99.90;;;;;;6159118;23;20753;-71
2023/12/02 03:30:13;;;;;;;12.70;6.33;;;-4.10;99.90;;;;;;6158473;23;20898;-71
2023/12/02 03:32:53;;;;;;;13.83;7.37;;;-4.00;99.90;;;;;;6158523;23;20393;-71
2023/12/02 03:35:20;;;;;;;14.27;6.77;;;-3.90;99.90;;;;;;6158446;23;20386;-71
2023/12/02 03:37:49;;;;;;;12.27;7.40;;;-3.90;99.90;;;;;;6158279;23;20390;-70
2023/12/02 03:40:53;;;;;;;12.30;7.13;;;-4.00;99.90;;;;;;6157769;23;20398;-71
2023/12/02 03:43:20;;;;;;;15.67;5.17;;;-4.00;99.90;;;;;;6160241;23;20386;-70
2023/12/02 03:45:47;;;;;;;14.70;8.43;;;-3.90;99.90;;;;;;6160698;23;20394;-70
2023/12/02 03:48:51;;;;;;;12.47;7.50;;;-4.00;99.90;;;;;;6159989;23;21068;-70
2023/12/02 03:51:37;;;;;;;18.07;5.77;;;-4.00;99.90;;;;;;6159888;23;20387;-70
2023/12/02 03:54:05;;;;;;;10.53;6.73;;;-4.00;99.90;;;;;;6159148;23;20509;-70
2023/12/02 03:56:33;;;;;;;11.57;5.17;;;-4.00;99.90;;;;;;6162953;23;20413;-71
2023/12/02 04:02:24;;;;;;;15.07;6.60;;;-4.00;99.90;;;;;;6170378;23;20705;-70
2023/12/02 04:05:03;;;;;;;16.47;7.13;;;-4.10;99.90;;;;;;6160477;23;20390;-70
2023/12/02 04:07:30;;;;;;;17.60;7.20;;;-4.10;99.90;;;;;;6159633;23;20803;-70
2023/12/02 04:09:58;;;;;;;20.87;9.13;;;-4.10;99.90;;;;;;6159327;23;20848;-70
2023/12/02 04:12:47;;;;;;;12.53;6.37;;;-4.00;99.90;;;;;;6160559;23;20386;-70
2023/12/02 04:15:15;;;;;;;9.67;6.00;;;-4.00;99.90;;;;;;6161015;23;20417;-71
2023/12/02 04:17:42;;;;;;;12.40;7.23;;;-4.00;99.90;;;;;;6159836;23;20445;-72
2023/12/02 04:20:46;;;;;;;14.00;8.37;;;-4.00;99.90;;;;;;6160267;23;20413;-70
2023/12/02 04:23:26;;;;;;;12.93;6.23;;;-4.00;99.90;;;;;;6160352;23;20410;-70
2023/12/02 04:25:55;;;;;;;16.17;6.60;;;-4.00;99.90;;;;;;6160451;23;20509;-70
2023/12/02 04:28:22;;;;;;;17.20;7.23;;;-4.00;99.90;;;;;;6158929;23;20766;-70
2023/12/02 04:30:49;;;;;;;11.70;6.30;;;-4.00;99.90;;;;;;6158884;23;20406;-69
2023/12/02 04:33:41;;;;;;;7.57;6.40;;;-4.00;99.90;;;;;;6158719;23;20405;-70
2023/12/02 04:36:36;;;;;;;10.77;6.93;;;-4.00;99.90;;;;;;6158776;23;20480;-70
2023/12/02 04:39:11;;;;;;;9.87;4.57;;;-3.90;99.90;;;;;;6133555;23;21019;-70
2023/12/02 04:41:48;;;;;;;17.10;8.93;;;-3.90;99.90;;;;;;6160238;23;20436;-70
2023/12/02 04:44:15;;;;;;;18.43;7.27;;;-4.00;99.90;;;;;;6158128;23;20417;-71
2023/12/02 04:46:43;;;;;;;16.40;6.40;;;-4.00;99.90;;;;;;6160045;23;20401;-70
2023/12/02 04:49:29;;;;;;;14.27;6.50;;;-4.00;99.90;;;;;;6158446;23;20424;-71
2023/12/02 04:52:00;;;;;;;14.47;7.27;;;-3.90;99.90;;;;;;6158791;23;20461;-71
2023/12/02 04:54:27;;;;;;;13.60;6.90;;;-3.90;99.90;;;;;;6133643;23;20410;-70
2023/12/02 04:56:56;;;;;;;11.60;6.07;;;-3.90;99.90;;;;;;6133715;23;20374;-69
2023/12/02 05:00:17;;;;;;;13.73;7.80;;;-4.00;99.90;;;;;;6160910;23;20986;-71
2023/12/02 05:02:57;;;;;;;11.57;5.30;;;-4.00;99.90;;;;;;6164302;23;20425;-70
2023/12/02 05:05:24;;;;;;;8.57;5.93;;;-4.00;99.90;;;;;;6153014;23;20408;-70
2023/12/02 05:10:47;;;;;;;11.50;4.70;;;-4.10;99.90;;;;;;6159865;23;20965;-70
2023/12/02 05:13:16;;;;;;;6.70;4.50;;;-4.00;99.90;;;;;;6158501;23;20374;-70
2023/12/02 05:15:45;;;;;;;19.90;10.17;;;-4.10;99.90;;;;;;6158199;23;20385;-70
2023/12/02 05:18:36;;;;;;;16.37;7.33;;;-4.10;99.90;;;;;;6158264;23;20436;-70
2023/12/02 05:21:04;;;;;;;13.47;7.40;;;-4.30;99.90;;;;;;6158013;23;20500;-70
2023/12/02 05:23:31;;;;;;;12.27;7.40;;;-4.30;99.90;;;;;;6158926;23;20877;-71
2023/12/02 05:26:03;;;;;;;10.53;6.00;;;-4.30;99.90;;;;;;6158313;23;20752;-70
2023/12/02 05:28:50;;;;;;;11.40;4.93;;;-4.30;99.90;;;;;;6158093;23;20456;-70
2023/12/02 05:31:41;;;;;;;10.37;4.90;;;-4.30;99.90;;;;;;6158181;23;20512;-71
2023/12/02 05:34:08;;;;;;;11.23;6.80;;;-4.20;99.90;;;;;;6158045;23;20393;-71
2023/12/02 05:36:35;;;;;;;15.80;4.40;;;-4.20;99.90;;;;;;6157849;23;20413;-71
2023/12/02 05:42:24;;;;;;;10.37;4.27;;;-4.30;99.90;;;;;;6157708;23;20381;-70
2023/12/02 05:44:59;;;;;;;10.03;5.20;;;-4.30;99.90;;;;;;6158284;23;20379;-70
2023/12/02 05:48:21;;;;;;;12.90;6.30;;;-4.30;99.90;;;;;;6158188;23;20934;-70
2023/12/02 05:50:48;;;;;;;9.47;4.87;;;-4.30;99.90;;;;;;6159114;23;20456;-69
2023/12/02 05:53:15;;;;;;;16.50;5.20;;;-4.30;99.90;;;;;;6159054;23;20393;-70
2023/12/02 06:05:09;;;;;;;6.63;4.30;;;-4.30;99.90;;;;;;6188705;23;20344;-70
2023/12/02 06:07:38;;;;;;;11.07;6.07;;;-4.20;99.90;;;;;;6188734;23;20381;-70
2023/12/02 06:10:07;;;;;;;6.43;3.23;;;-4.30;99.90;;;;;;6189522;23;20922;-71
2023/12/02 06:12:45;;;;;;;14.93;5.70;;;-4.30;99.90;;;;;;6188732;23;20750;-70
2023/12/02 06:15:34;;;;;;;9.10;5.30;;;-4.30;99.90;;;;;;6187623;23;20800;-71
2023/12/02 06:18:02;;;;;;;9.13;4.53;;;-4.30;99.90;;;;;;6187208;23;20413;-70
2023/12/02 06:20:31;;;;;;;12.43;6.23;;;-4.30;99.90;;;;;;6187284;23;20431;-70
2023/12/02 06:26:20;;;;;;;7.97;3.57;;;-4.30;99.90;;;;;;6188921;23;20368;-70
2023/12/02 06:33:56;;;;;;;11.00;5.33;;;-4.10;99.90;;;;;;6199875;23;20439;-70
2023/12/02 06:36:24;;;;;;;7.60;3.30;;;-2.80;99.90;;;;;;6187830;23;20472;-68
2023/12/02 06:38:51;;;;;;;7.97;4.53;;;-4.10;99.90;;;;;;6187693;23;20428;-68
2023/12/02 06:41:19;;;;;;;8.67;3.20;;;-4.10;99.90;;;;;;6213569;23;20389;-56
2023/12/02 06:43:46;;;;;;;8.10;5.60;;;-4.00;99.90;;;;;;6191512;23;20397;-67
2023/12/02 06:46:21;;;;;;;8.90;6.07;;;-4.00;99.90;;;;;;6187833;23;20416;-68
2023/12/02 06:48:48;;;;;;;12.07;4.83;;;-4.00;99.90;;;;;;6205539;23;20483;-56
2023/12/02 06:51:15;;;;;;;13.90;6.90;;;-4.00;99.90;;;;;;6205887;23;20407;-67
2023/12/02 06:53:43;;;;;;;14.07;5.50;;;-4.00;99.90;;;;;;6201890;23;20433;-68
2023/12/02 06:56:17;;;;;;;6.40;2.60;;;-4.00;99.90;;;;;;6187680;23;20433;-68
2023/12/02 06:58:44;;;;;;;21.33;8.43;;;-4.00;99.90;;;;;;6189548;23;20567;-66
2023/12/02 07:01:11;;;;;;;5.20;3.40;;;-4.10;99.90;;;;;;6206988;23;20376;-55
2023/12/02 07:03:38;;;;;;;10.03;4.87;;;-4.00;99.90;;;;;;6203095;23;20416;-69
2023/12/02 07:06:05;;;;;;;12.10;5.77;;;-3.90;99.90;;;;;;6187591;23;20415;-64
2023/12/02 07:08:32;;;;;;;15.13;9.37;;;-3.90;99.90;;;;;;6213014;23;20386;-56
2023/12/02 07:11:00;;;;;;;13.87;6.30;;;-3.90;99.90;;;;;;6199825;23;20405;-67
2023/12/02 07:13:27;;;;;;;12.63;7.77;;;-3.80;99.90;;;;;;6197286;23;20389;-49
2023/12/02 07:15:54;;;;;;;21.70;9.27;;;-3.80;99.90;;;;;;6207788;23;20428;-70
2023/12/02 07:18:21;;;;;;;14.03;8.97;;;-3.80;99.90;;;;;;6198780;23;20412;-54
2023/12/02 07:20:48;;;;;;;17.13;8.90;;;-3.70;99.90;;;;;;6211025;23;20432;-55
2023/12/02 07:23:15;;;;;;;10.53;5.97;;;-3.70;99.90;;;;;;6188004;23;20389;-66
2023/12/02 07:25:42;;;;;;;13.13;7.03;;;-3.60;99.90;;;;;;6210202;23;20392;-57
2023/12/02 07:28:10;;;;;;;10.93;5.00;;;-3.60;99.90;;;;;;6197313;23;20405;-72
2023/12/02 07:30:37;;;;;;;7.13;5.00;;;-3.60;99.90;;;;;;6198218;23;20440;-68
2023/12/02 07:33:04;;;;;;;12.20;5.83;;;-3.60;99.90;;;;;;6201506;23;20396;-57
2023/12/02 07:35:31;;;;;;;7.43;4.37;;;-3.50;99.90;;;;;;6195509;23;20488;-69
2023/12/02 07:37:58;;;;;;;8.93;4.97;;;-3.50;99.90;;;;;;6204501;23;20907;-67
2023/12/02 07:40:25;;;;;;;11.30;6.20;;;-3.50;99.90;;;;;;6203581;23;20455;-69
2023/12/02 07:42:51;;;;;;;14.23;5.87;;;-3.50;99.90;;;;;;6197427;23;20428;-53
2023/12/02 07:45:20;;;;;;;14.37;6.10;;;-3.50;99.90;;;;;;6201352;23;20405;-55
2023/12/02 07:47:47;;;;;;;5.73;3.30;;;-3.50;99.90;;;;;;6201820;23;20867;-67
2023/12/02 07:50:13;;;;;;;9.57;4.90;;;-3.40;99.90;;;;;;6194039;23;20390;-69
2023/12/02 07:52:40;;;;;;;4.27;3.20;;;-3.40;99.90;;;;;;6209387;23;20408;-52
2023/12/02 07:55:08;;;;;;;8.63;3.50;;;-3.40;99.90;;;;;;6194821;23;20377;-55
2023/12/02 07:57:35;;;;;;;5.40;2.33;;;-3.40;99.90;;;;;;6201867;23;20416;-66
2023/12/02 08:00:03;;;;;;;6.57;5.43;;;-3.40;99.90;;;;;;6212250;23;20441;-61
2023/12/02 08:02:31;;;;;;;8.30;4.43;;;-3.30;99.90;;;;;;6190155;23;20744;-67
2023/12/02 08:04:58;;;;;;;9.83;4.03;;;-3.30;99.90;;;;;;6211320;23;20419;-67
2023/12/02 08:07:25;;;;;;;8.07;4.20;;;-3.20;99.90;;;;;;6198903;23;20424;-56
2023/12/02 08:09:52;;;;;;;8.73;5.33;;;-3.10;99.90;;;;;;6209939;23;20429;-69
2023/12/02 08:12:19;;;;;;;7.60;4.53;;;-3.10;99.90;;;;;;6203771;23;20392;-54
2023/12/02 08:14:46;;;;;;;4.70;3.30;;;-3.10;99.90;;;;;;6197835;23;20679;-57
2023/12/02 08:17:13;;;;;;;6.03;3.30;;;-3.10;99.90;;;;;;6213927;23;20361;-55
2023/12/02 08:19:41;;;;;;;9.67;3.93;;;-3.00;99.90;;;;;;6203797;23;20452;-55
2023/12/02 08:22:08;;;;;;;7.23;3.83;;;-2.90;99.90;;;;;;6210685;23;20405;-68
2023/12/02 08:24:42;;;;;;;7.97;4.27;;;-3.00;99.90;;;;;;6198079;23;20408;-69
2023/12/02 08:27:09;;;;;;;10.73;4.00;;;-3.00;99.90;;;;;;6194582;23;20417;-56
2023/12/02 08:29:38;;;;;;;10.43;4.87;;;-2.90;99.90;;;;;;6210144;23;20384;-65
2023/12/02 08:32:06;;;;;;;11.07;3.70;;;-2.70;99.90;;;;;;6210344;23;20441;-54
2023/12/02 08:34:32;;;;;;;6.33;4.60;;;-2.80;99.90;;;;;;6197853;23;20412;-68
2023/12/02 08:37:01;;;;;;;8.33;4.80;;;-2.80;99.90;;;;;;6208033;23;20423;-52
2023/12/02 08:39:28;;;;;;;7.27;4.43;;;-2.60;99.90;;;;;;6198367;23;20475;-65
2023/12/02 08:41:54;;;;;;;5.87;3.00;;;-2.50;99.90;;;;;;6205052;23;20436;-68
2023/12/02 08:44:22;;;;;;;7.63;4.33;;;-2.50;99.90;;;;;;6199080;23;20423;-57
2023/12/02 08:46:49;;;;;;;6.50;3.43;;;-2.50;99.90;;;;;;6203854;23;20476;-66
2023/12/02 08:49:16;;;;;;;9.57;5.37;;;-2.40;99.90;;;;;;6203451;23;20389;-66
2023/12/02 08:51:43;;;;;;;5.77;3.13;;;-2.40;99.90;;;;;;6199205;23;20392;-56
2023/12/02 08:54:11;;;;;;;18.50;7.10;;;-2.30;99.90;;;;;;6211478;23;20389;-55
2023/12/02 08:56:40;;;;;;;11.33;6.27;;;-2.20;99.90;;;;;;6212934;23;20463;-55
2023/12/02 08:59:07;;;;;;;11.95;5.75;;;-2.20;99.90;;;;;;6208631;23;20389;-56
2023/12/02 09:01:34;;;;;;;11.47;4.00;;;-2.10;99.90;;;;;;6200032;23;20415;-69
2023/12/02 09:04:01;;;;;;;9.17;4.57;;;-2.10;99.90;;;;;;6207587;23;20443;-68
2023/12/02 09:06:28;;;;;;;12.90;4.87;;;-2.10;99.90;;;;;;6213645;23;20427;-64
2023/12/02 09:08:55;;;;;;;11.00;6.07;;;-1.90;99.90;;;;;;6209630;23;20431;-68
2023/12/02 09:11:23;;;;;;;8.40;5.77;;;-1.90;99.90;;;;;;6198896;23;20417;-55
2023/12/02 09:13:50;;;;;;;14.33;6.60;;;-1.90;99.90;;;;;;6201356;23;20433;-68
2023/12/02 09:16:21;;;;;;;10.57;5.80;;;-1.90;99.90;;;;;;6195538;23;20411;-69
2023/12/02 09:18:48;;;;;;;9.93;5.30;;;-1.80;99.90;;;;;;6211266;23;20440;-61
2023/12/02 09:21:43;;;;;;;10.50;5.97;;;-1.70;99.90;;;;;;6205627;23;20548;-67
2023/12/02 09:24:36;;;;;;;10.67;5.73;;;-1.60;99.90;;;;;;6184169;23;20427;-68
2023/12/02 09:27:06;;;;;;;20.60;7.67;;;-1.70;99.90;;;;;;6201392;23;20385;-56
2023/12/02 09:29:36;;;;;;;13.80;7.10;;;-1.60;99.90;;;;;;6191871;23;20515;-68
2023/12/02 09:32:36;;;;;;;18.20;7.50;;;-1.50;99.90;;;;;;6209544;23;20382;-57
2023/12/02 09:35:03;;;;;;;15.90;7.40;;;-1.50;99.90;;;;;;6189267;23;20515;-68
2023/12/02 09:37:55;;;;;;;13.07;5.47;;;-1.40;99.90;;;;;;6214359;23;20393;-55
2023/12/02 09:41:00;;;;;;;13.77;7.23;;;-1.40;99.90;;;;;;6186008;23;20448;-67
2023/12/02 09:43:34;;;;;;;10.13;6.07;;;-1.40;99.90;;;;;;6179030;23;20404;-68
2023/12/02 09:46:15;;;;;;;14.13;6.27;;;-0.20;99.90;;;;;;6204241;23;20382;-54
2023/12/02 09:48:56;;;;;;;10.40;5.40;;;-1.40;99.90;;;;;;6213208;23;20404;-54
2023/12/02 09:51:35;;;;;;;17.77;6.30;;;-0.90;99.90;;;;;;6211539;23;20377;-66
2023/12/02 09:54:09;;;;;;;13.90;8.60;;;-1.40;99.90;;;;;;6214269;23;20403;-57
2023/12/02 09:56:44;;;;;;;10.83;6.67;;;-1.30;99.90;;;;;;6199534;23;20388;-50
2023/12/02 09:59:17;;;;;;;19.73;9.47;;;-1.30;99.90;;;;;;6212679;23;20485;-63
2023/12/02 10:01:48;;;;;;;11.37;6.60;;;-1.30;99.90;;;;;;6212723;23;20377;-66
2023/12/02 10:04:31;;;;;;;10.00;4.83;;;-1.30;99.90;;;;;;6212691;23;20413;-63
2023/12/02 10:07:03;;;;;;;15.43;6.40;;;-1.30;99.90;;;;;;6202040;23;20402;-53
2023/12/02 10:09:53;;;;;;;12.20;5.43;;;-1.20;99.90;;;;;;6210917;23;20421;-55
2023/12/02 10:12:37;;;;;;;10.23;5.63;;;-1.10;99.90;;;;;;6210710;23;20389;-69
2023/12/02 10:15:12;;;;;;;9.03;5.60;;;-1.20;99.90;;;;;;6214259;23;20409;-61
2023/12/02 10:17:50;;;;;;;13.63;5.60;;;-1.20;99.90;;;;;;6213400;23;20380;-52
2023/12/02 10:20:20;;;;;;;10.93;5.30;;;-1.20;99.90;;;;;;6197473;23;20456;-67
2023/12/02 10:22:53;;;;;;;13.07;7.80;;;-1.20;99.90;;;;;;6207508;23;20832;-63
2023/12/02 10:25:34;;;;;;;13.87;7.50;;;-1.10;99.90;;;;;;6199594;23;20389;-67
2023/12/02 10:28:12;;;;;;;7.80;5.90;;;-1.20;99.90;;;;;;6205409;23;20389;-68
2023/12/02 10:30:47;;;;;;;9.10;4.73;;;-1.20;99.90;;;;;;6211980;23;20389;-68
2023/12/02 10:33:25;;;;;;;10.33;4.93;;;-1.20;99.90;;;;;;6194349;23;20416;-68
2023/12/02 10:35:56;;;;;;;13.80;6.17;;;-1.20;99.90;;;;;;6190282;23;20428;-68
2023/12/02 10:38:31;;;;;;;12.87;5.33;;;-1.10;99.90;;;;;;6191260;23;20440;-65
2023/12/02 10:41:09;;;;;;;19.53;8.40;;;-1.10;99.90;;;;;;6197339;23;20420;-55
2023/12/02 10:43:39;;;;;;;23.20;9.27;;;-1.10;99.90;;;;;;6200594;23;20433;-67
2023/12/02 10:46:08;;;;;;;18.40;5.10;;;-1.10;99.90;;;;;;6187851;23;20386;-64
2023/12/02 10:48:36;;;;;;;10.40;5.07;;;-1.10;99.90;;;;;;6188741;23;20499;-66
2023/12/02 10:51:05;;;;;;;10.90;6.23;;;-1.10;99.90;;;;;;6194934;23;20403;-55
2023/12/02 10:53:35;;;;;;;13.40;6.60;;;-1.00;99.90;;;;;;6209069;23;20425;-56
2023/12/02 10:56:07;;;;;;;13.97;5.63;;;-1.20;99.90;;;;;;6211102;23;20385;-65
2023/12/02 10:58:35;;;;;;;11.60;5.40;;;-1.20;99.90;;;;;;6200195;23;20408;-57
2023/12/02 11:01:09;;;;;;;13.87;5.53;;;-1.20;99.90;;;;;;6207827;23;20428;-57
2023/12/02 11:03:44;;;;;;;12.97;5.97;;;-1.10;99.90;;;;;;6210787;23;20424;-53
2023/12/02 11:06:19;;;;;;;8.47;4.80;;;-1.10;99.90;;;;;;6199343;23;20428;-68
2023/12/02 11:08:54;;;;;;;10.53;5.50;;;-1.20;99.90;;;;;;6203667;23;20393;-68
2023/12/02 11:11:35;;;;;;;8.87;4.80;;;-1.20;99.90;;;;;;6213041;23;20419;-55
2023/12/02 11:14:03;;;;;;;10.27;5.90;;;-1.20;99.90;;;;;;6205523;23;20687;-66
2023/12/02 11:16:43;;;;;;;8.07;4.77;;;-1.20;99.90;;;;;;6204427;23;20444;-56
2023/12/02 11:19:24;;;;;;;12.37;6.20;;;-1.30;99.90;;;;;;6210202;23;20377;-64
2023/12/02 11:22:17;;;;;;;7.73;3.97;;;-1.30;99.90;;;;;;6207163;23;20440;-66
2023/12/02 11:25:03;;;;;;;6.80;4.93;;;-1.30;99.90;;;;;;6192834;23;20416;-64
2023/12/02 11:27:38;;;;;;;8.90;4.20;;;-1.40;99.90;;;;;;6195033;23;20934;-56
2023/12/02 11:30:19;;;;;;;18.67;7.77;;;-1.40;99.90;;;;;;6214117;23;20364;-55
2023/12/02 11:32:57;;;;;;;7.53;3.73;;;-1.50;99.90;;;;;;6210228;23;20456;-52
2023/12/02 11:35:32;;;;;;;10.60;5.30;;;-1.70;99.90;;;;;;6211745;23;20375;-67
2023/12/02 11:38:06;;;;;;;12.10;5.00;;;-1.80;99.90;;;;;;6190818;23;20420;-67
2023/12/02 11:40:45;;;;;;;8.10;4.97;;;-1.60;99.90;;;;;;6196958;23;20440;-58
2023/12/02 11:43:25;;;;;;;8.60;4.37;;;-1.80;99.90;;;;;;6196277;23;20393;-64
2023/12/02 11:45:58;;;;;;;6.13;2.23;;;-1.90;99.90;;;;;;6199870;23;20417;-55
2023/12/02 11:48:37;;;;;;;7.83;3.30;;;-1.90;99.90;;;;;;6206076;23;20437;-67
2023/12/02 11:51:20;;;;;;;6.97;3.10;;;-1.90;99.90;;;;;;6209561;23;20425;-55
2023/12/02 11:54:09;;;;;;;7.60;3.83;;;-2.00;99.90;;;;;;6194401;23;20385;-53
2023/12/02 11:56:36;;;;;;;6.23;3.00;;;-2.00;99.90;;;;;;6204108;23;20542;-54
2023/12/02 11:59:15;;;;;;;6.67;2.70;;;-2.10;99.90;;;;;;6210540;23;20392;-55
2023/12/02 12:02:01;;;;;;;8.07;3.73;;;-2.10;99.90;;;;;;6213667;23;20484;-53
2023/12/02 12:04:59;;;;;;;7.83;3.77;;;-2.00;99.90;;;;;;6213250;23;20374;-60
2023/12/02 12:07:39;;;;;;;8.63;4.30;;;-2.10;99.90;;;;;;6202305;23;20400;-56
2023/12/02 12:10:12;;;;;;;10.47;5.83;;;-2.10;99.90;;;;;;6199566;23;20521;-63
2023/12/02 12:12:43;;;;;;;9.33;3.80;;;-2.10;99.90;;;;;;6213342;23;20380;-61
2023/12/02 12:15:13;;;;;;;15.07;4.77;;;-2.20;99.90;;;;;;6191581;23;20464;-54
2023/12/02 12:17:42;;;;;;;11.13;5.20;;;-2.20;99.90;;;;;;6205253;23;20381;-57
2023/12/02 12:20:22;;;;;;;8.40;3.50;;;-2.20;99.90;;;;;;6210861;23;20428;-66
2023/12/02 12:22:51;;;;;;;11.80;4.47;;;-2.20;99.90;;;;;;6194830;23;20408;-56
2023/12/02 12:25:19;;;;;;;10.53;5.47;;;-2.20;99.90;;;;;;6205480;23;20405;-57
2023/12/02 12:27:46;;;;;;;5.70;3.10;;;-2.30;99.90;;;;;;6192885;23;20428;-67
2023/12/02 12:30:13;;;;;;;8.83;1.97;;;-2.30;99.90;;;;;;6206024;23;20392;-56
2023/12/02 12:32:40;;;;;;;10.00;4.50;;;-2.30;99.90;;;;;;6208333;23;20439;-67
2023/12/02 12:35:11;;;;;;;4.10;1.83;;;-2.30;99.90;;;;;;6211737;23;20409;-61
2023/12/02 12:37:41;;;;;;;4.77;1.50;;;-2.30;99.90;;;;;;6188975;23;20421;-66
2023/12/02 12:40:10;;;;;;;7.67;4.40;;;-2.40;99.90;;;;;;6196968;23;20397;-56
2023/12/02 12:42:45;;;;;;;15.17;4.37;;;-2.60;99.90;;;;;;6209752;23;20432;-66
2023/12/02 12:45:13;;;;;;;6.00;3.53;;;-2.60;99.90;;;;;;6202516;23;20392;-69
2023/12/02 12:47:42;;;;;;;10.20;4.77;;;-2.70;99.90;;;;;;6189130;23;20459;-68
2023/12/02 12:50:12;;;;;;;10.63;4.43;;;-2.70;99.90;;;;;;6199831;23;20429;-55
2023/12/02 12:52:47;;;;;;;16.83;4.80;;;-2.60;99.90;;;;;;6212901;23;20400;-63
2023/12/02 12:55:18;;;;;;;4.17;2.90;;;-2.50;99.90;;;;;;6212491;23;20417;-64
2023/12/02 12:57:58;;;;;;;13.40;5.10;;;-2.40;99.90;;;;;;6208704;23;20394;-67
2023/12/02 13:00:27;;;;;;;11.93;5.60;;;-2.30;99.90;;;;;;6187575;23;20389;-67
2023/12/02 13:03:31;;;;;;;9.10;5.90;;;-2.30;99.90;;;;;;6200463;23;20440;-57
2023/12/02 13:06:09;;;;;;;7.30;4.30;;;-2.20;99.90;;;;;;6203917;23;20693;-67
2023/12/02 13:08:46;;;;;;;10.80;7.13;;;-2.10;99.90;;;;;;6213172;23;20421;-59
2023/12/02 13:11:19;;;;;;;14.70;5.80;;;-2.20;99.90;;;;;;6204367;23;20376;-55
2023/12/02 13:13:54;;;;;;;8.30;4.97;;;-1.70;99.90;;;;;;6208442;23;20440;-68
2023/12/02 13:16:23;;;;;;;11.03;4.40;;;-2.20;99.90;;;;;;6197862;23;20388;-67
2023/12/02 13:18:52;;;;;;;13.00;4.33;;;-2.10;99.90;;;;;;6198587;23;20468;-65
2023/12/02 13:21:19;;;;;;;6.73;4.83;;;-2.10;99.90;;;;;;6193929;23;20444;-67
2023/12/02 13:23:53;;;;;;;8.53;4.00;;;-2.00;99.90;;;;;;6209629;23;20472;-52
2023/12/02 13:26:26;;;;;;;15.37;5.20;;;-2.10;99.90;;;;;;6197440;23;20427;-52
2023/12/02 13:28:54;;;;;;;8.47;4.20;;;-2.00;99.90;;;;;;6210123;23;20396;-55
2023/12/02 13:31:22;;;;;;;7.50;4.30;;;-1.90;99.90;;;;;;6208860;23;20405;-68
2023/12/02 13:33:59;;;;;;;10.27;4.47;;;-2.00;99.90;;;;;;6212810;23;20417;-49
2023/12/02 13:36:33;;;;;;;15.63;7.50;;;-1.90;99.90;;;;;;6196039;23;20684;-67
2023/12/02 13:39:07;;;;;;;11.17;5.90;;;-1.80;99.90;;;;;;6214828;23;20429;-57
2023/12/02 13:41:46;;;;;;;12.40;5.37;;;-1.70;99.90;;;;;;6207728;23;20436;-64
2023/12/02 13:44:16;;;;;;;20.57;6.80;;;-1.70;99.90;;;;;;6214076;23;20389;-57
2023/12/02 13:47:03;;;;;;;8.80;4.67;;;-1.60;99.90;;;;;;6214818;23;20441;-54
2023/12/02 13:49:40;;;;;;;13.37;4.20;;;-1.60;99.90;;;;;;6210505;23;20441;-61